createdAt,value
2022-10-01T00:03:08.283Z,55.6
2022-10-01T00:08:10.265Z,55.8
2022-10-01T00:13:09.465Z,55.9
2022-10-01T00:18:09.478Z,55.8
2022-10-01T00:23:12.092Z,55.6
2022-10-01T00:28:11.426Z,55.7
2022-10-01T00:33:13.987Z,55.8
2022-10-01T00:38:13.243Z,55.8
2022-10-01T00:43:13.155Z,55.8
2022-10-01T00:48:13.023Z,55.7
2022-10-01T00:53:12.936Z,55.7
2022-10-01T00:58:12.797Z,55.7
2022-10-01T01:03:12.660Z,55.7
2022-10-01T01:08:12.396Z,55.7
2022-10-01T01:13:12.288Z,55.3
2022-10-01T01:18:12.096Z,55.6
2022-10-01T01:23:12.206Z,55.1
2022-10-01T01:28:13.983Z,55.5
2022-10-01T01:33:13.363Z,55.1
2022-10-01T01:38:13.151Z,55.6
2022-10-01T01:43:13.009Z,55.6
2022-10-01T01:48:12.743Z,55.5
2022-10-01T01:53:12.312Z,55.6
2022-10-01T01:58:11.961Z,55.5
2022-10-01T02:03:11.792Z,55.6
2022-10-01T02:08:12.442Z,55.7
2022-10-01T02:13:11.935Z,55.6
2022-10-01T02:18:11.543Z,55.3
2022-10-01T02:23:11.502Z,55.6
2022-10-01T02:28:11.434Z,55.4
2022-10-01T02:33:11.192Z,55.4
2022-10-01T02:38:13.476Z,55.5
2022-10-01T02:43:15.387Z,55.5
2022-10-01T02:48:14.936Z,55.4
2022-10-01T02:53:14.572Z,55.4
2022-10-01T02:58:14.449Z,55.4
2022-10-01T03:03:14.257Z,55.5
2022-10-01T03:08:14.183Z,55.5
2022-10-01T03:13:13.971Z,55.4
2022-10-01T03:18:13.950Z,55.3
2022-10-01T03:23:13.533Z,55.2
2022-10-01T03:28:16.061Z,54.9
2022-10-01T03:33:18.175Z,54.9
2022-10-01T03:38:19.991Z,54.9
2022-10-01T03:43:21.643Z,54.8
2022-10-01T03:48:23.444Z,55.1
2022-10-01T03:53:22.946Z,55.1
2022-10-01T03:58:21.988Z,55.2
2022-10-01T04:03:21.797Z,55
2022-10-01T04:08:24.637Z,55.1
2022-10-01T04:13:26.685Z,55
2022-10-01T04:18:28.835Z,54.9
2022-10-01T04:23:30.843Z,54.9
2022-10-01T04:28:30.441Z,54.9
2022-10-01T04:33:29.998Z,54.9
2022-10-01T04:38:29.709Z,54.9
2022-10-01T04:43:32.286Z,54.9
2022-10-01T04:48:31.636Z,54.9
2022-10-01T04:53:31.503Z,54.7
2022-10-01T04:58:31.184Z,54.9
2022-10-01T05:03:33.822Z,55
2022-10-01T05:08:32.974Z,55
2022-10-01T05:13:35.592Z,54.9
2022-10-01T05:18:34.884Z,54.7
2022-10-01T05:23:34.523Z,54.6
2022-10-01T05:28:34.289Z,54.6
2022-10-01T05:33:36.780Z,54.7
2022-10-01T05:38:36.253Z,54.7
2022-10-01T05:43:35.703Z,54.7
2022-10-01T05:48:35.380Z,54.8
2022-10-01T05:53:35.271Z,54.9
2022-10-01T05:58:35.363Z,54.7
2022-10-01T06:03:35.526Z,54.3
2022-10-01T06:08:38.026Z,54.5
2022-10-01T06:13:40.201Z,54.1
2022-10-01T06:18:39.518Z,54.1
2022-10-01T06:23:39.210Z,54
2022-10-01T06:28:39.028Z,54.1
2022-10-01T06:33:41.741Z,54.1
2022-10-01T06:38:41.227Z,54.2
2022-10-01T06:43:43.718Z,54.3
2022-10-01T06:48:43.080Z,54.4
2022-10-01T06:53:45.574Z,54.4
2022-10-01T06:58:44.830Z,54.2
2022-10-01T07:03:44.698Z,54.5
2022-10-01T07:08:44.478Z,54.5
2022-10-01T07:13:44.486Z,54.6
2022-10-01T07:18:44.383Z,54.5
2022-10-01T07:23:46.888Z,54.6
2022-10-01T07:28:46.133Z,54.6
2022-10-01T07:33:45.661Z,54.7
2022-10-01T07:38:45.364Z,54.6
2022-10-01T07:43:45.354Z,54.7
2022-10-01T07:48:47.673Z,54.8
2022-10-01T07:53:45.595Z,54.9
2022-10-01T07:58:47.904Z,55
2022-10-01T08:03:49.711Z,55
2022-10-01T08:08:51.659Z,55.2
2022-10-01T08:13:50.973Z,55.2
2022-10-01T08:18:55.142Z,55.2
2022-10-01T08:23:53.069Z,55.3
2022-10-01T08:28:56.014Z,55.3
2022-10-01T08:33:55.429Z,55.4
2022-10-01T08:38:55.445Z,55.4
2022-10-01T08:43:55.350Z,55.4
2022-10-01T08:48:57.258Z,55.4
2022-10-01T08:53:55.979Z,55.5
2022-10-01T08:58:55.619Z,55.4
2022-10-01T09:03:55.429Z,55.3
2022-10-01T09:08:57.798Z,55.3
2022-10-01T09:14:03.701Z,55.4
2022-10-01T09:19:04.863Z,55.4
2022-10-01T09:24:03.053Z,55.5
2022-10-01T09:29:05.777Z,55.5
2022-10-01T09:34:05.259Z,55.3
2022-10-01T09:39:04.936Z,55.3
2022-10-01T09:44:04.572Z,55.2
2022-10-01T09:49:04.473Z,55.2
2022-10-01T09:54:04.185Z,55.4
2022-10-01T09:59:06.621Z,55.2
2022-10-01T10:04:07.470Z,55.2
2022-10-01T10:09:06.913Z,55.3
2022-10-01T10:14:05.354Z,55.2
2022-10-01T10:19:05.345Z,55.3
2022-10-01T10:24:05.084Z,55.1
2022-10-01T10:29:04.620Z,55.2
2022-10-01T10:34:04.393Z,55.2
2022-10-01T10:39:06.795Z,55.2
2022-10-01T10:44:06.933Z,55.4
2022-10-01T10:49:09.299Z,55.5
2022-10-01T10:54:11.058Z,55.5
2022-10-01T10:59:13.094Z,55.4
2022-10-01T11:04:11.807Z,55.6
2022-10-01T11:09:11.744Z,55.4
2022-10-01T11:14:11.314Z,55.6
2022-10-01T11:19:13.801Z,55.4
2022-10-01T11:24:12.941Z,55.5
2022-10-01T11:29:12.855Z,55.4
2022-10-01T11:34:14.423Z,55.4
2022-10-01T11:39:16.585Z,55.5
2022-10-01T11:44:15.766Z,55.6
2022-10-01T11:49:18.447Z,55.5
2022-10-01T11:54:17.702Z,55.5
2022-10-01T11:59:17.306Z,55.4
2022-10-01T12:04:16.992Z,55.4
2022-10-01T12:09:19.330Z,55.5
2022-10-01T12:14:21.476Z,55.6
2022-10-01T12:19:23.480Z,55.4
2022-10-01T12:24:21.789Z,55.5
2022-10-01T12:29:24.310Z,55.6
2022-10-01T12:34:26.360Z,55.7
2022-10-01T12:39:25.537Z,55.8
2022-10-01T12:44:27.841Z,56
2022-10-01T12:49:29.886Z,55.9
2022-10-01T12:54:28.942Z,55.8
2022-10-01T12:59:28.847Z,55.7
2022-10-01T13:04:28.489Z,55.7
2022-10-01T13:09:28.129Z,55.7
2022-10-01T13:14:30.508Z,55.7
2022-10-01T13:19:29.822Z,55.8
2022-10-01T13:24:32.357Z,55.7
2022-10-01T13:29:34.298Z,55.7
2022-10-01T13:34:36.363Z,55.7
2022-10-01T13:39:39.645Z,55.8
2022-10-01T13:44:40.362Z,55.8
2022-10-01T13:49:39.429Z,55.8
2022-10-01T13:54:39.187Z,55.8
2022-10-01T13:59:38.887Z,55.8
2022-10-01T14:04:38.553Z,55.8
2022-10-01T14:09:38.208Z,55.8
2022-10-01T14:14:40.550Z,55.8
2022-10-01T14:19:42.167Z,55.8
2022-10-01T14:24:41.460Z,55.8
2022-10-01T14:29:41.206Z,55.8
2022-10-01T14:34:41.012Z,55.8
2022-10-01T14:39:43.568Z,55.8
2022-10-01T14:44:43.048Z,55.9
2022-10-01T14:49:42.829Z,55.9
2022-10-01T14:54:42.600Z,55.9
2022-10-01T14:59:42.392Z,55.9
2022-10-01T15:04:42.088Z,56
2022-10-01T15:09:41.932Z,56
2022-10-01T15:14:41.744Z,56
2022-10-01T15:19:41.735Z,56.1
2022-10-01T15:24:41.585Z,56
2022-10-01T15:29:44.325Z,56.1
2022-10-01T15:34:43.652Z,56.1
2022-10-01T15:39:43.478Z,56.2
2022-10-01T15:44:45.806Z,56.2
2022-10-01T15:49:44.854Z,56.1
2022-10-01T15:54:44.660Z,56.2
2022-10-01T15:59:44.633Z,56.2
2022-10-01T16:04:44.446Z,56.2
2022-10-01T16:09:43.915Z,56.3
2022-10-01T16:14:43.682Z,56.3
2022-10-01T16:19:43.367Z,56.3
2022-10-01T16:24:45.923Z,56.3
2022-10-01T16:29:47.932Z,56.3
2022-10-01T16:34:49.815Z,56.4
2022-10-01T16:39:51.979Z,56.3
2022-10-01T16:44:51.244Z,56.3
2022-10-01T16:49:51.029Z,56.2
2022-10-01T16:54:50.866Z,56.4
2022-10-01T16:59:53.431Z,56.4
2022-10-01T17:04:55.427Z,56.4
2022-10-01T17:09:54.555Z,56.5
2022-10-01T17:14:56.953Z,56.6
2022-10-01T17:19:56.427Z,56.7
2022-10-01T17:24:56.236Z,56.7
2022-10-01T17:29:55.955Z,56.6
2022-10-01T17:34:55.872Z,56.6
2022-10-01T17:39:55.834Z,56.6
2022-10-01T17:45:00.049Z,56.8
2022-10-01T17:49:59.232Z,56.7
2022-10-01T17:54:58.960Z,56.9
2022-10-01T17:59:58.839Z,56.8
2022-10-01T18:04:58.664Z,56.9
2022-10-01T18:09:58.390Z,57
2022-10-01T18:14:58.129Z,56.9
2022-10-01T18:19:58.134Z,57
2022-10-01T18:24:57.963Z,57
2022-10-01T18:29:57.822Z,57.1
2022-10-01T18:34:57.430Z,57.1
2022-10-01T18:39:57.334Z,57.1
2022-10-01T18:44:57.061Z,57.1
2022-10-01T18:49:56.909Z,57.2
2022-10-01T18:54:56.587Z,57.2
2022-10-01T18:59:59.193Z,57.3
2022-10-01T19:04:58.390Z,57.2
2022-10-01T19:09:58.218Z,57.3
2022-10-01T19:14:57.931Z,57.2
2022-10-01T19:19:57.948Z,57.4
2022-10-01T19:24:57.494Z,57.3
2022-10-01T19:30:00.162Z,57.4
2022-10-01T19:34:59.362Z,57.5
2022-10-01T19:39:59.117Z,57.5
2022-10-01T19:44:58.985Z,57.3
2022-10-01T19:49:58.879Z,57.4
2022-10-01T19:54:58.618Z,57.3
2022-10-01T19:59:58.431Z,57.4
2022-10-01T20:04:58.311Z,57.2
2022-10-01T20:10:01.620Z,57.2
2022-10-01T20:14:57.846Z,57.2
2022-10-01T20:19:57.691Z,57.1
2022-10-01T20:24:57.557Z,57.3
2022-10-01T20:30:00.076Z,57.3
2022-10-01T20:34:59.466Z,57.4
2022-10-01T20:40:02.056Z,57.3
2022-10-01T20:45:01.569Z,57.4
2022-10-01T20:50:08.271Z,57.4
2022-10-01T20:55:03.311Z,57.3
2022-10-01T21:00:05.332Z,57.4
2022-10-01T21:05:04.652Z,57.2
2022-10-01T21:10:04.396Z,57.3
2022-10-01T21:15:04.083Z,57.3
2022-10-01T21:20:06.949Z,57.3
2022-10-01T21:25:06.148Z,57.5
2022-10-01T21:30:06.047Z,57.3
2022-10-01T21:35:05.924Z,57.3
2022-10-01T21:40:05.959Z,57.4
2022-10-01T21:45:05.238Z,57.5
2022-10-01T21:50:05.155Z,57.6
2022-10-01T21:55:05.010Z,57.8
2022-10-01T22:00:07.803Z,57.6
2022-10-01T22:05:07.174Z,57.6
2022-10-01T22:10:06.810Z,57.6
2022-10-01T22:15:06.666Z,57.6
2022-10-01T22:20:06.716Z,57.7
2022-10-01T22:25:06.509Z,58
2022-10-01T22:30:08.945Z,57.8
2022-10-01T22:35:08.108Z,57.7
2022-10-01T22:40:09.015Z,57.7
2022-10-01T22:45:11.174Z,57.7
2022-10-01T22:50:10.687Z,57.7
2022-10-01T22:55:10.470Z,57.9
2022-10-01T23:00:10.396Z,57.8
2022-10-01T23:05:12.968Z,57.7
2022-10-01T23:10:12.414Z,58
2022-10-01T23:15:14.814Z,57.8
2022-10-01T23:20:14.274Z,57.8
2022-10-01T23:25:14.195Z,57.9
2022-10-01T23:30:14.085Z,57.9
2022-10-01T23:35:15.709Z,58
2022-10-01T23:40:15.209Z,57.9
2022-10-01T23:45:14.925Z,58
2022-10-01T23:50:17.555Z,58
2022-10-01T23:55:16.772Z,58
